sensor_id;sensor_type;location;lat;lon;timestamp;pressure;altitude;pressure_sealevel;temperature;humidity
83488;BME280;73424;49.994;8.184;2024-03-06T00:00:25;100119.06;;;4.64;88.95
83488;BME280;73424;49.994;8.184;2024-03-06T00:02:51;100117.41;;;4.63;88.42
83488;BME280;73424;49.994;8.184;2024-03-06T00:05:16;100111.88;;;4.40;87.96
83488;BME280;73424;49.994;8.184;2024-03-06T00:07:42;100105.19;;;4.28;88.45
83488;BME280;73424;49.994;8.184;2024-03-06T00:10:08;100109.25;;;4.22;88.63
83488;BME280;73424;49.994;8.184;2024-03-06T00:12:34;100143.09;;;4.53;88.05
83488;BME280;73424;49.994;8.184;2024-03-06T00:15:00;100152.75;;;4.36;89.30
83488;BME280;73424;49.994;8.184;2024-03-06T00:17:25;100141.25;;;4.19;89.79
83488;BME280;73424;49.994;8.184;2024-03-06T00:19:52;100116.09;;;4.07;89.98
83488;BME280;73424;49.994;8.184;2024-03-06T00:22:17;100141.56;;;4.16;89.36
83488;BME280;73424;49.994;8.184;2024-03-06T00:24:43;100152.88;;;4.26;89.54
83488;BME280;73424;49.994;8.184;2024-03-06T00:27:08;100149.03;;;4.21;89.29
83488;BME280;73424;49.994;8.184;2024-03-06T00:29:34;100168.50;;;4.46;89.29
83488;BME280;73424;49.994;8.184;2024-03-06T00:32:03;100145.59;;;4.28;89.26
83488;BME280;73424;49.994;8.184;2024-03-06T00:34:28;100152.19;;;4.24;89.30
83488;BME280;73424;49.994;8.184;2024-03-06T00:36:54;100141.63;;;4.24;89.00
83488;BME280;73424;49.994;8.184;2024-03-06T00:39:20;100179.00;;;4.37;88.86
83488;BME280;73424;49.994;8.184;2024-03-06T00:41:45;100156.56;;;4.33;89.02
83488;BME280;73424;49.994;8.184;2024-03-06T00:44:10;100152.03;;;4.26;89.66
83488;BME280;73424;49.994;8.184;2024-03-06T00:46:36;100124.31;;;4.04;90.09
83488;BME280;73424;49.994;8.184;2024-03-06T00:49:02;100136.19;;;4.26;90.14
83488;BME280;73424;49.994;8.184;2024-03-06T00:51:27;100168.44;;;4.37;90.49
83488;BME280;73424;49.994;8.184;2024-03-06T00:53:52;100170.53;;;4.52;89.82
83488;BME280;73424;49.994;8.184;2024-03-06T00:56:18;100179.31;;;4.60;90.69
83488;BME280;73424;49.994;8.184;2024-03-06T00:58:43;100170.84;;;4.49;89.06
83488;BME280;73424;49.994;8.184;2024-03-06T01:01:08;100179.75;;;4.48;89.17
83488;BME280;73424;49.994;8.184;2024-03-06T01:03:33;100177.28;;;4.28;88.70
83488;BME280;73424;49.994;8.184;2024-03-06T01:05:59;100174.09;;;4.17;89.66
83488;BME280;73424;49.994;8.184;2024-03-06T01:08:24;100131.63;;;3.84;89.67
83488;BME280;73424;49.994;8.184;2024-03-06T01:10:53;100162.91;;;3.97;89.38
83488;BME280;73424;49.994;8.184;2024-03-06T01:13:19;100112.88;;;3.70;90.35
83488;BME280;73424;49.994;8.184;2024-03-06T01:15:45;100149.75;;;4.05;89.64
83488;BME280;73424;49.994;8.184;2024-03-06T01:18:11;100141.66;;;3.81;89.20
83488;BME280;73424;49.994;8.184;2024-03-06T01:20:36;100168.91;;;4.07;89.25
83488;BME280;73424;49.994;8.184;2024-03-06T01:23:02;100183.59;;;4.10;91.02
83488;BME280;73424;49.994;8.184;2024-03-06T01:25:28;100176.09;;;3.97;90.18
83488;BME280;73424;49.994;8.184;2024-03-06T01:27:53;100180.00;;;3.93;90.03
83488;BME280;73424;49.994;8.184;2024-03-06T01:30:19;100183.31;;;3.95;90.47
83488;BME280;73424;49.994;8.184;2024-03-06T01:32:44;100181.69;;;3.94;90.55
83488;BME280;73424;49.994;8.184;2024-03-06T01:35:09;100160.41;;;3.78;90.99
83488;BME280;73424;49.994;8.184;2024-03-06T01:37:35;100198.44;;;3.85;91.30
83488;BME280;73424;49.994;8.184;2024-03-06T01:40:00;100168.28;;;3.70;91.95
83488;BME280;73424;49.994;8.184;2024-03-06T01:42:25;100163.91;;;3.78;91.56
83488;BME280;73424;49.994;8.184;2024-03-06T01:44:51;100168.78;;;3.91;91.08
83488;BME280;73424;49.994;8.184;2024-03-06T01:47:16;100182.47;;;4.12;90.10
83488;BME280;73424;49.994;8.184;2024-03-06T01:49:42;100165.22;;;4.00;90.30
83488;BME280;73424;49.994;8.184;2024-03-06T01:52:11;100195.31;;;4.33;90.79
83488;BME280;73424;49.994;8.184;2024-03-06T01:54:38;100202.09;;;4.35;90.35
83488;BME280;73424;49.994;8.184;2024-03-06T01:57:05;100184.25;;;4.29;90.21
83488;BME280;73424;49.994;8.184;2024-03-06T01:59:31;100191.03;;;4.32;90.27
83488;BME280;73424;49.994;8.184;2024-03-06T02:01:58;100194.69;;;4.13;90.51
83488;BME280;73424;49.994;8.184;2024-03-06T02:04:24;100149.56;;;3.81;91.37
83488;BME280;73424;49.994;8.184;2024-03-06T02:06:50;100151.56;;;4.05;90.63
83488;BME280;73424;49.994;8.184;2024-03-06T02:09:17;100159.69;;;4.11;90.13
83488;BME280;73424;49.994;8.184;2024-03-06T02:11:44;100209.41;;;4.42;89.82
83488;BME280;73424;49.994;8.184;2024-03-06T02:14:09;100195.44;;;4.49;89.96
83488;BME280;73424;49.994;8.184;2024-03-06T02:16:38;100180.22;;;4.43;90.11
83488;BME280;73424;49.994;8.184;2024-03-06T02:19:08;100190.31;;;4.48;90.10
83488;BME280;73424;49.994;8.184;2024-03-06T02:21:34;100204.25;;;4.58;90.56
83488;BME280;73424;49.994;8.184;2024-03-06T02:24:00;100204.34;;;4.48;90.95
83488;BME280;73424;49.994;8.184;2024-03-06T02:26:25;100187.53;;;4.31;90.04
83488;BME280;73424;49.994;8.184;2024-03-06T02:28:55;100178.34;;;4.35;90.85
83488;BME280;73424;49.994;8.184;2024-03-06T02:31:22;100208.78;;;4.73;90.33
83488;BME280;73424;49.994;8.184;2024-03-06T02:33:48;100176.47;;;4.54;90.05
83488;BME280;73424;49.994;8.184;2024-03-06T02:36:17;100204.16;;;5.01;90.35
83488;BME280;73424;49.994;8.184;2024-03-06T02:38:43;100197.34;;;4.99;89.60
83488;BME280;73424;49.994;8.184;2024-03-06T02:41:09;100200.25;;;5.29;89.12
83488;BME280;73424;49.994;8.184;2024-03-06T02:43:35;100175.81;;;5.27;88.19
83488;BME280;73424;49.994;8.184;2024-03-06T02:46:01;100148.63;;;5.01;88.41
83488;BME280;73424;49.994;8.184;2024-03-06T02:48:27;100192.00;;;5.24;89.65
83488;BME280;73424;49.994;8.184;2024-03-06T02:50:52;100179.72;;;5.15;89.21
83488;BME280;73424;49.994;8.184;2024-03-06T02:53:17;100175.75;;;5.11;88.90
83488;BME280;73424;49.994;8.184;2024-03-06T02:55:43;100185.69;;;5.17;88.83
83488;BME280;73424;49.994;8.184;2024-03-06T02:58:08;100161.78;;;4.85;90.05
83488;BME280;73424;49.994;8.184;2024-03-06T03:00:33;100159.41;;;4.74;89.22
83488;BME280;73424;49.994;8.184;2024-03-06T03:02:58;100187.13;;;4.70;89.82
83488;BME280;73424;49.994;8.184;2024-03-06T03:05:24;100162.97;;;4.65;90.33
83488;BME280;73424;49.994;8.184;2024-03-06T03:07:50;100171.69;;;4.83;89.37
83488;BME280;73424;49.994;8.184;2024-03-06T03:10:16;100150.38;;;4.84;88.47
83488;BME280;73424;49.994;8.184;2024-03-06T03:12:41;100184.69;;;5.10;89.03
83488;BME280;73424;49.994;8.184;2024-03-06T03:15:08;100162.28;;;4.88;88.63
83488;BME280;73424;49.994;8.184;2024-03-06T03:17:33;100173.31;;;4.84;89.33
83488;BME280;73424;49.994;8.184;2024-03-06T03:19:59;100190.22;;;4.91;88.22
83488;BME280;73424;49.994;8.184;2024-03-06T03:22:25;100186.84;;;4.81;89.33
83488;BME280;73424;49.994;8.184;2024-03-06T03:24:50;100169.50;;;4.78;88.58
83488;BME280;73424;49.994;8.184;2024-03-06T03:27:16;100201.81;;;4.98;88.75
83488;BME280;73424;49.994;8.184;2024-03-06T03:29:42;100213.19;;;4.99;88.81
83488;BME280;73424;49.994;8.184;2024-03-06T03:32:07;100206.22;;;4.89;88.49
83488;BME280;73424;49.994;8.184;2024-03-06T03:34:34;100179.66;;;4.65;88.82
83488;BME280;73424;49.994;8.184;2024-03-06T03:37:00;100192.41;;;4.70;87.94
83488;BME280;73424;49.994;8.184;2024-03-06T03:39:25;100193.69;;;4.58;88.99
83488;BME280;73424;49.994;8.184;2024-03-06T03:41:52;100211.91;;;4.69;88.56
83488;BME280;73424;49.994;8.184;2024-03-06T03:44:18;100192.59;;;4.43;89.62
83488;BME280;73424;49.994;8.184;2024-03-06T03:46:46;100188.19;;;4.51;89.04
83488;BME280;73424;49.994;8.184;2024-03-06T03:49:12;100189.31;;;4.49;88.71
83488;BME280;73424;49.994;8.184;2024-03-06T03:51:38;100226.91;;;4.68;88.70
83488;BME280;73424;49.994;8.184;2024-03-06T03:54:04;100210.84;;;4.62;88.96
83488;BME280;73424;49.994;8.184;2024-03-06T03:56:30;100204.03;;;4.51;88.59
83488;BME280;73424;49.994;8.184;2024-03-06T03:58:57;100191.50;;;4.27;89.09
83488;BME280;73424;49.994;8.184;2024-03-06T04:01:25;100212.22;;;4.40;88.79
83488;BME280;73424;49.994;8.184;2024-03-06T04:03:51;100161.84;;;3.90;89.03
83488;BME280;73424;49.994;8.184;2024-03-06T04:06:16;100232.38;;;4.23;89.82
83488;BME280;73424;49.994;8.184;2024-03-06T04:08:42;100143.94;;;3.76;89.88
83488;BME280;73424;49.994;8.184;2024-03-06T04:11:07;100222.38;;;4.09;90.00
83488;BME280;73424;49.994;8.184;2024-03-06T04:13:37;100204.34;;;4.05;89.59
83488;BME280;73424;49.994;8.184;2024-03-06T04:16:04;100231.41;;;4.24;89.17
83488;BME280;73424;49.994;8.184;2024-03-06T04:18:30;100232.38;;;4.23;90.09
83488;BME280;73424;49.994;8.184;2024-03-06T04:21:06;100231.47;;;4.32;89.25
83488;BME280;73424;49.994;8.184;2024-03-06T04:23:33;100219.75;;;4.35;90.16
83488;BME280;73424;49.994;8.184;2024-03-06T04:25:59;100225.53;;;4.30;89.53
83488;BME280;73424;49.994;8.184;2024-03-06T04:28:25;100244.06;;;4.38;90.21
83488;BME280;73424;49.994;8.184;2024-03-06T04:30:50;100137.28;;;3.72;89.62
83488;BME280;73424;49.994;8.184;2024-03-06T04:33:15;100239.59;;;4.39;90.39
83488;BME280;73424;49.994;8.184;2024-03-06T04:35:41;100208.66;;;4.06;89.99
83488;BME280;73424;49.994;8.184;2024-03-06T04:38:06;100245.63;;;4.31;90.17
83488;BME280;73424;49.994;8.184;2024-03-06T04:40:33;100250.44;;;4.28;90.97
83488;BME280;73424;49.994;8.184;2024-03-06T04:42:59;100258.19;;;4.29;89.81
83488;BME280;73424;49.994;8.184;2024-03-06T04:45:24;100258.53;;;4.34;90.94
83488;BME280;73424;49.994;8.184;2024-03-06T04:47:50;100262.72;;;4.37;90.15
83488;BME280;73424;49.994;8.184;2024-03-06T04:50:16;100260.97;;;4.46;89.45
83488;BME280;73424;49.994;8.184;2024-03-06T04:52:43;100266.25;;;4.46;90.38
83488;BME280;73424;49.994;8.184;2024-03-06T04:55:10;100275.94;;;4.63;89.61
83488;BME280;73424;49.994;8.184;2024-03-06T04:57:37;100269.72;;;4.72;89.41
83488;BME280;73424;49.994;8.184;2024-03-06T05:00:02;100279.34;;;4.81;88.40
83488;BME280;73424;49.994;8.184;2024-03-06T05:02:31;100244.00;;;4.56;88.79
83488;BME280;73424;49.994;8.184;2024-03-06T05:04:59;100256.03;;;4.51;88.69
83488;BME280;73424;49.994;8.184;2024-03-06T05:07:26;100239.34;;;4.24;89.81
83488;BME280;73424;49.994;8.184;2024-03-06T05:09:51;100261.72;;;4.20;89.91
83488;BME280;73424;49.994;8.184;2024-03-06T05:12:16;100200.31;;;3.75;89.54
83488;BME280;73424;49.994;8.184;2024-03-06T05:14:41;100296.81;;;4.30;90.05
83488;BME280;73424;49.994;8.184;2024-03-06T05:17:07;100256.41;;;4.12;88.22
83488;BME280;73424;49.994;8.184;2024-03-06T05:19:32;100226.38;;;3.96;88.80
83488;BME280;73424;49.994;8.184;2024-03-06T05:21:58;100306.78;;;4.36;89.00
83488;BME280;73424;49.994;8.184;2024-03-06T05:24:24;100302.09;;;4.30;88.04
83488;BME280;73424;49.994;8.184;2024-03-06T05:26:49;100307.06;;;3.98;89.13
83488;BME280;73424;49.994;8.184;2024-03-06T05:29:14;100277.88;;;3.55;89.98
83488;BME280;73424;49.994;8.184;2024-03-06T05:31:40;100311.75;;;3.59;90.81
83488;BME280;73424;49.994;8.184;2024-03-06T05:34:06;100250.06;;;3.15;90.51
83488;BME280;73424;49.994;8.184;2024-03-06T05:36:32;100295.00;;;3.51;89.61
83488;BME280;73424;49.994;8.184;2024-03-06T05:38:57;100313.97;;;3.64;89.78
83488;BME280;73424;49.994;8.184;2024-03-06T05:41:24;100323.09;;;3.69;89.71
83488;BME280;73424;49.994;8.184;2024-03-06T05:43:49;100259.16;;;3.30;89.34
83488;BME280;73424;49.994;8.184;2024-03-06T05:46:14;100300.38;;;3.59;89.47
83488;BME280;73424;49.994;8.184;2024-03-06T05:48:41;100302.75;;;3.52;90.05
83488;BME280;73424;49.994;8.184;2024-03-06T05:51:06;100339.47;;;3.73;89.18
83488;BME280;73424;49.994;8.184;2024-03-06T05:53:39;100338.38;;;3.66;90.56
83488;BME280;73424;49.994;8.184;2024-03-06T05:56:07;100328.88;;;3.46;90.33
83488;BME280;73424;49.994;8.184;2024-03-06T05:58:33;100349.16;;;3.45;91.47
83488;BME280;73424;49.994;8.184;2024-03-06T06:01:02;100347.91;;;3.40;91.36
83488;BME280;73424;49.994;8.184;2024-03-06T06:03:29;100315.50;;;3.29;90.49
83488;BME280;73424;49.994;8.184;2024-03-06T06:05:55;100356.66;;;3.40;91.38
83488;BME280;73424;49.994;8.184;2024-03-06T06:08:20;100329.56;;;3.20;90.57
83488;BME280;73424;49.994;8.184;2024-03-06T06:10:45;100339.63;;;3.35;90.44
83488;BME280;73424;49.994;8.184;2024-03-06T06:13:11;100348.47;;;3.43;90.35
83488;BME280;73424;49.994;8.184;2024-03-06T06:15:37;100362.19;;;3.47;90.54
83488;BME280;73424;49.994;8.184;2024-03-06T06:18:03;100372.94;;;3.36;91.41
83488;BME280;73424;49.994;8.184;2024-03-06T06:20:29;100368.09;;;3.21;91.80
83488;BME280;73424;49.994;8.184;2024-03-06T06:22:55;100371.88;;;3.19;91.72
83488;BME280;73424;49.994;8.184;2024-03-06T06:25:20;100356.34;;;3.06;91.49
83488;BME280;73424;49.994;8.184;2024-03-06T06:27:46;100379.19;;;3.35;91.10
83488;BME280;73424;49.994;8.184;2024-03-06T06:30:11;100233.38;;;2.51;91.14
83488;BME280;73424;49.994;8.184;2024-03-06T06:32:37;100372.38;;;3.32;90.26
83488;BME280;73424;49.994;8.184;2024-03-06T06:35:04;100400.16;;;3.26;90.79
83488;BME280;73424;49.994;8.184;2024-03-06T06:37:30;100388.66;;;3.18;90.97
83488;BME280;73424;49.994;8.184;2024-03-06T06:39:55;100385.34;;;3.06;91.82
83488;BME280;73424;49.994;8.184;2024-03-06T06:42:22;100372.16;;;3.06;90.94
83488;BME280;73424;49.994;8.184;2024-03-06T06:44:47;100371.09;;;2.99;91.34
83488;BME280;73424;49.994;8.184;2024-03-06T06:47:12;100344.09;;;2.78;91.55
83488;BME280;73424;49.994;8.184;2024-03-06T06:49:37;100377.00;;;3.20;91.03
83488;BME280;73424;49.994;8.184;2024-03-06T06:52:03;100376.84;;;3.22;91.23
83488;BME280;73424;49.994;8.184;2024-03-06T06:54:28;100400.06;;;3.55;90.08
83488;BME280;73424;49.994;8.184;2024-03-06T06:56:53;100378.50;;;3.33;89.86
83488;BME280;73424;49.994;8.184;2024-03-06T06:59:19;100378.41;;;3.15;89.97
83488;BME280;73424;49.994;8.184;2024-03-06T07:01:47;100390.69;;;3.34;91.50
83488;BME280;73424;49.994;8.184;2024-03-06T07:04:12;100373.88;;;3.44;89.59
83488;BME280;73424;49.994;8.184;2024-03-06T07:06:37;100391.13;;;3.66;89.25
83488;BME280;73424;49.994;8.184;2024-03-06T07:09:03;100406.44;;;3.90;89.69
83488;BME280;73424;49.994;8.184;2024-03-06T07:11:30;100409.69;;;3.74;88.76
83488;BME280;73424;49.994;8.184;2024-03-06T07:13:55;100395.44;;;3.67;89.95
83488;BME280;73424;49.994;8.184;2024-03-06T07:16:20;100416.66;;;3.75;90.40
83488;BME280;73424;49.994;8.184;2024-03-06T07:18:46;100381.97;;;3.70;89.98
83488;BME280;73424;49.994;8.184;2024-03-06T07:21:11;100412.94;;;3.95;89.86
83488;BME280;73424;49.994;8.184;2024-03-06T07:23:37;100391.34;;;4.09;89.29
83488;BME280;73424;49.994;8.184;2024-03-06T07:26:02;100407.13;;;4.36;89.02
83488;BME280;73424;49.994;8.184;2024-03-06T07:28:27;100397.31;;;4.47;88.26
83488;BME280;73424;49.994;8.184;2024-03-06T07:30:52;100434.91;;;4.76;88.04
83488;BME280;73424;49.994;8.184;2024-03-06T07:33:18;100382.81;;;4.51;88.63
83488;BME280;73424;49.994;8.184;2024-03-06T07:35:43;100398.59;;;4.78;87.48
83488;BME280;73424;49.994;8.184;2024-03-06T07:38:08;100417.97;;;5.04;87.50
83488;BME280;73424;49.994;8.184;2024-03-06T07:40:35;100437.75;;;5.18;88.08
83488;BME280;73424;49.994;8.184;2024-03-06T07:43:00;100445.59;;;5.27;87.01
83488;BME280;73424;49.994;8.184;2024-03-06T07:45:26;100449.81;;;5.38;87.05
83488;BME280;73424;49.994;8.184;2024-03-06T07:47:53;100430.13;;;5.15;88.19
83488;BME280;73424;49.994;8.184;2024-03-06T07:50:18;100420.28;;;5.25;87.39
83488;BME280;73424;49.994;8.184;2024-03-06T07:52:47;100436.25;;;5.67;86.55
83488;BME280;73424;49.994;8.184;2024-03-06T07:55:12;100435.94;;;5.70;86.06
83488;BME280;73424;49.994;8.184;2024-03-06T07:57:38;100435.25;;;5.93;85.79
83488;BME280;73424;49.994;8.184;2024-03-06T08:00:05;100454.84;;;6.09;85.88
83488;BME280;73424;49.994;8.184;2024-03-06T08:02:39;100420.25;;;6.10;85.64
83488;BME280;73424;49.994;8.184;2024-03-06T08:05:10;100440.38;;;6.37;85.31
83488;BME280;73424;49.994;8.184;2024-03-06T08:07:39;100421.16;;;6.27;85.89
83488;BME280;73424;49.994;8.184;2024-03-06T08:10:14;100437.97;;;6.76;85.09
83488;BME280;73424;49.994;8.184;2024-03-06T08:12:43;100425.03;;;6.89;83.71
83488;BME280;73424;49.994;8.184;2024-03-06T08:15:13;100425.72;;;7.07;83.49
83488;BME280;73424;49.994;8.184;2024-03-06T08:17:39;100461.78;;;7.73;82.45
83488;BME280;73424;49.994;8.184;2024-03-06T08:20:07;100421.03;;;7.41;82.61
83488;BME280;73424;49.994;8.184;2024-03-06T08:22:37;100456.63;;;7.79;82.21
83488;BME280;73424;49.994;8.184;2024-03-06T08:25:08;100472.72;;;7.78;82.27
83488;BME280;73424;49.994;8.184;2024-03-06T08:27:36;100462.16;;;8.08;81.83
83488;BME280;73424;49.994;8.184;2024-03-06T08:30:05;100446.78;;;7.96;81.34
83488;BME280;73424;49.994;8.184;2024-03-06T08:32:32;100457.50;;;7.55;82.12
83488;BME280;73424;49.994;8.184;2024-03-06T08:35:00;100466.44;;;7.79;81.61
83488;BME280;73424;49.994;8.184;2024-03-06T08:37:25;100450.66;;;8.24;79.79
83488;BME280;73424;49.994;8.184;2024-03-06T08:39:51;100467.81;;;8.52;78.54
83488;BME280;73424;49.994;8.184;2024-03-06T08:42:16;100482.97;;;8.74;78.53
83488;BME280;73424;49.994;8.184;2024-03-06T08:44:44;100493.16;;;8.40;78.98
83488;BME280;73424;49.994;8.184;2024-03-06T08:47:10;100487.38;;;8.59;79.61
83488;BME280;73424;49.994;8.184;2024-03-06T08:49:35;100477.97;;;8.80;78.16
83488;BME280;73424;49.994;8.184;2024-03-06T08:52:00;100469.66;;;8.74;78.84
83488;BME280;73424;49.994;8.184;2024-03-06T08:54:25;100479.09;;;8.85;77.73
83488;BME280;73424;49.994;8.184;2024-03-06T08:56:51;100389.00;;;8.37;78.19
83488;BME280;73424;49.994;8.184;2024-03-06T08:59:19;100471.69;;;8.72;77.25
83488;BME280;73424;49.994;8.184;2024-03-06T09:01:44;100464.13;;;8.84;76.46
83488;BME280;73424;49.994;8.184;2024-03-06T09:04:09;100498.81;;;8.99;75.72
83488;BME280;73424;49.994;8.184;2024-03-06T09:06:34;100504.59;;;9.25;74.55
83488;BME280;73424;49.994;8.184;2024-03-06T09:09:00;100467.78;;;9.06;74.50
83488;BME280;73424;49.994;8.184;2024-03-06T09:11:25;100439.03;;;8.87;74.72
83488;BME280;73424;49.994;8.184;2024-03-06T09:13:50;100455.88;;;9.02;74.61
83488;BME280;73424;49.994;8.184;2024-03-06T09:16:15;100449.06;;;8.77;74.97
83488;BME280;73424;49.994;8.184;2024-03-06T09:18:42;100473.94;;;9.06;75.85
83488;BME280;73424;49.994;8.184;2024-03-06T09:21:08;100493.91;;;9.48;74.29
83488;BME280;73424;49.994;8.184;2024-03-06T09:23:33;100476.28;;;9.47;74.58
83488;BME280;73424;49.994;8.184;2024-03-06T09:25:59;100463.19;;;9.22;73.67
83488;BME280;73424;49.994;8.184;2024-03-06T09:28:24;100510.25;;;9.45;74.31
83488;BME280;73424;49.994;8.184;2024-03-06T09:30:50;100472.88;;;9.15;73.40
83488;BME280;73424;49.994;8.184;2024-03-06T09:33:15;100496.94;;;9.45;73.27
83488;BME280;73424;49.994;8.184;2024-03-06T09:35:40;100487.31;;;9.58;73.38
83488;BME280;73424;49.994;8.184;2024-03-06T09:38:11;100516.16;;;9.69;72.88
83488;BME280;73424;49.994;8.184;2024-03-06T09:40:38;100514.38;;;9.84;72.92
83488;BME280;73424;49.994;8.184;2024-03-06T09:43:05;100484.44;;;9.45;72.43
83488;BME280;73424;49.994;8.184;2024-03-06T09:45:32;100474.09;;;9.50;72.01
83488;BME280;73424;49.994;8.184;2024-03-06T09:47:57;100504.81;;;10.05;71.76
83488;BME280;73424;49.994;8.184;2024-03-06T09:50:23;100498.25;;;9.63;72.19
83488;BME280;73424;49.994;8.184;2024-03-06T09:52:52;100487.34;;;9.73;72.29
83488;BME280;73424;49.994;8.184;2024-03-06T09:55:21;100518.16;;;9.53;73.75
83488;BME280;73424;49.994;8.184;2024-03-06T09:57:46;100476.00;;;9.42;73.07
83488;BME280;73424;49.994;8.184;2024-03-06T10:00:13;100488.25;;;9.65;72.64
83488;BME280;73424;49.994;8.184;2024-03-06T10:02:41;100516.31;;;10.05;71.99
83488;BME280;73424;49.994;8.184;2024-03-06T10:05:21;100522.56;;;9.98;71.99
83488;BME280;73424;49.994;8.184;2024-03-06T10:07:48;100531.22;;;10.00;71.87
83488;BME280;73424;49.994;8.184;2024-03-06T10:10:14;100471.56;;;10.15;71.93
83488;BME280;73424;49.994;8.184;2024-03-06T10:12:40;100466.22;;;10.01;71.71
83488;BME280;73424;49.994;8.184;2024-03-06T10:15:06;100513.09;;;10.54;71.45
83488;BME280;73424;49.994;8.184;2024-03-06T10:17:35;100489.22;;;10.16;71.10
83488;BME280;73424;49.994;8.184;2024-03-06T10:20:00;100496.63;;;10.50;71.21
83488;BME280;73424;49.994;8.184;2024-03-06T10:22:30;100498.97;;;10.74;70.67
83488;BME280;73424;49.994;8.184;2024-03-06T10:24:55;100435.78;;;10.39;69.55
83488;BME280;73424;49.994;8.184;2024-03-06T10:27:23;100487.91;;;10.42;71.72
83488;BME280;73424;49.994;8.184;2024-03-06T10:30:02;100451.25;;;10.29;71.33
83488;BME280;73424;49.994;8.184;2024-03-06T10:32:30;100501.81;;;10.87;71.18
83488;BME280;73424;49.994;8.184;2024-03-06T10:34:55;100490.06;;;11.03;69.64
83488;BME280;73424;49.994;8.184;2024-03-06T10:37:22;100503.34;;;11.18;68.33
83488;BME280;73424;49.994;8.184;2024-03-06T10:39:49;100470.31;;;10.83;68.26
83488;BME280;73424;49.994;8.184;2024-03-06T10:42:17;100514.00;;;11.39;66.62
83488;BME280;73424;49.994;8.184;2024-03-06T10:44:52;100491.38;;;11.14;67.15
83488;BME280;73424;49.994;8.184;2024-03-06T10:47:19;100486.78;;;11.29;67.33
83488;BME280;73424;49.994;8.184;2024-03-06T10:49:45;100483.19;;;11.36;67.38
83488;BME280;73424;49.994;8.184;2024-03-06T10:52:11;100517.28;;;11.83;66.37
83488;BME280;73424;49.994;8.184;2024-03-06T10:54:38;100509.47;;;11.82;66.12
83488;BME280;73424;49.994;8.184;2024-03-06T10:57:08;100480.75;;;11.41;67.02
83488;BME280;73424;49.994;8.184;2024-03-06T10:59:35;100493.38;;;11.54;67.66
83488;BME280;73424;49.994;8.184;2024-03-06T11:02:01;100522.78;;;11.54;65.26
83488;BME280;73424;49.994;8.184;2024-03-06T11:04:28;100498.81;;;11.88;64.12
83488;BME280;73424;49.994;8.184;2024-03-06T11:06:55;100492.69;;;11.94;63.62
83488;BME280;73424;49.994;8.184;2024-03-06T11:09:20;100509.44;;;12.10;63.00
83488;BME280;73424;49.994;8.184;2024-03-06T11:11:50;100515.28;;;12.26;62.02
83488;BME280;73424;49.994;8.184;2024-03-06T11:14:16;100520.75;;;12.46;62.02
83488;BME280;73424;49.994;8.184;2024-03-06T11:17:02;100519.53;;;12.14;63.76
83488;BME280;73424;49.994;8.184;2024-03-06T11:19:31;100517.75;;;12.62;63.44
83488;BME280;73424;49.994;8.184;2024-03-06T11:21:57;100514.78;;;12.44;62.54
83488;BME280;73424;49.994;8.184;2024-03-06T11:24:33;100480.03;;;12.57;61.33
83488;BME280;73424;49.994;8.184;2024-03-06T11:27:02;100509.00;;;13.01;60.35
83488;BME280;73424;49.994;8.184;2024-03-06T11:30:03;100490.34;;;12.67;60.48
83488;BME280;73424;49.994;8.184;2024-03-06T11:32:59;100505.88;;;12.78;61.68
83488;BME280;73424;49.994;8.184;2024-03-06T11:35:28;100501.44;;;13.24;60.29
83488;BME280;73424;49.994;8.184;2024-03-06T11:37:53;100488.09;;;12.70;61.18
83488;BME280;73424;49.994;8.184;2024-03-06T11:40:23;100466.25;;;12.60;62.47
83488;BME280;73424;49.994;8.184;2024-03-06T11:42:49;100500.22;;;13.27;60.72
83488;BME280;73424;49.994;8.184;2024-03-06T11:45:16;100502.28;;;13.38;60.21
83488;BME280;73424;49.994;8.184;2024-03-06T11:48:02;100503.19;;;12.91;60.40
83488;BME280;73424;49.994;8.184;2024-03-06T11:50:28;100499.28;;;12.80;60.37
83488;BME280;73424;49.994;8.184;2024-03-06T11:52:56;100470.19;;;12.64;59.98
83488;BME280;73424;49.994;8.184;2024-03-06T11:55:22;100499.84;;;12.69;61.11
83488;BME280;73424;49.994;8.184;2024-03-06T11:57:50;100492.75;;;13.02;60.67
83488;BME280;73424;49.994;8.184;2024-03-06T12:00:16;100477.50;;;12.96;60.63
83488;BME280;73424;49.994;8.184;2024-03-06T12:02:42;100489.97;;;12.76;60.80
83488;BME280;73424;49.994;8.184;2024-03-06T12:05:08;100461.56;;;12.82;60.94
83488;BME280;73424;49.994;8.184;2024-03-06T12:07:47;100498.78;;;13.31;59.29
83488;BME280;73424;49.994;8.184;2024-03-06T12:10:13;100445.63;;;12.54;59.81
83488;BME280;73424;49.994;8.184;2024-03-06T12:12:40;100507.94;;;12.89;57.79
83488;BME280;73424;49.994;8.184;2024-03-06T12:15:10;100504.25;;;12.90;56.12
83488;BME280;73424;49.994;8.184;2024-03-06T12:17:47;100493.47;;;12.70;56.96
83488;BME280;73424;49.994;8.184;2024-03-06T12:20:14;100489.78;;;12.71;56.90
83488;BME280;73424;49.994;8.184;2024-03-06T12:22:51;100509.78;;;12.88;56.64
83488;BME280;73424;49.994;8.184;2024-03-06T12:27:49;100490.22;;;12.94;56.25
83488;BME280;73424;49.994;8.184;2024-03-06T12:30:19;100495.00;;;13.05;54.99
83488;BME280;73424;49.994;8.184;2024-03-06T12:32:56;100485.72;;;12.95;54.99
83488;BME280;73424;49.994;8.184;2024-03-06T12:35:25;100523.63;;;12.98;55.75
83488;BME280;73424;49.994;8.184;2024-03-06T12:37:51;100513.84;;;13.32;54.39
83488;BME280;73424;49.994;8.184;2024-03-06T12:40:16;100491.56;;;13.12;54.77
83488;BME280;73424;49.994;8.184;2024-03-06T12:42:42;100481.25;;;13.08;55.69
83488;BME280;73424;49.994;8.184;2024-03-06T12:45:08;100493.63;;;13.23;56.63
83488;BME280;73424;49.994;8.184;2024-03-06T12:47:35;100521.25;;;13.36;55.34
83488;BME280;73424;49.994;8.184;2024-03-06T12:50:00;100501.13;;;12.80;55.48
83488;BME280;73424;49.994;8.184;2024-03-06T12:52:26;100495.59;;;13.01;56.10
83488;BME280;73424;49.994;8.184;2024-03-06T12:54:51;100468.41;;;12.97;54.40
83488;BME280;73424;49.994;8.184;2024-03-06T12:57:16;100510.13;;;13.26;55.09